createdAt,value
2023-05-05T00:02:22.084Z,3.45
2023-05-05T00:05:25.348Z,3.45
2023-05-05T00:08:28.473Z,3.62
2023-05-05T00:11:30.985Z,3.45
2023-05-05T00:14:33.282Z,4.28
2023-05-05T00:17:36.038Z,2.93
2023-05-05T00:20:38.366Z,2.78
2023-05-05T00:23:40.928Z,2.72
2023-05-05T00:26:43.126Z,3.50
2023-05-05T00:29:45.643Z,3.90
2023-05-05T00:32:49.172Z,3.30
2023-05-05T00:35:51.839Z,3.20
2023-05-05T00:38:54.050Z,2.83
2023-05-05T00:41:56.534Z,3.65
2023-05-05T00:44:58.679Z,3.00
2023-05-05T00:48:01.608Z,2.97
2023-05-05T00:51:08.761Z,3.13
2023-05-05T00:54:11.409Z,5.47
2023-05-05T00:57:13.863Z,3.03
2023-05-05T01:00:16.764Z,4.07
2023-05-05T01:03:19.147Z,3.73
2023-05-05T01:06:53.376Z,3.28
2023-05-05T01:10:18.772Z,3.90
2023-05-05T01:13:28.785Z,3.10
2023-05-05T01:16:34.589Z,3.45
2023-05-05T01:19:43.210Z,3.30
2023-05-05T01:22:57.077Z,3.22
2023-05-05T01:26:24.367Z,4.47
2023-05-05T01:29:47.993Z,3.50
2023-05-05T01:32:55.375Z,3.20
2023-05-05T01:36:13.545Z,3.42
2023-05-05T01:39:17.738Z,4.25
2023-05-05T01:42:22.330Z,3.40
2023-05-05T01:45:28.546Z,3.50
2023-05-05T01:48:31.072Z,3.60
2023-05-05T01:51:35.475Z,4.03
2023-05-05T01:54:40.201Z,3.10
2023-05-05T01:57:45.143Z,3.50
2023-05-05T02:00:48.996Z,3.60
2023-05-05T02:03:54.324Z,3.75
2023-05-05T02:06:58.241Z,3.53
2023-05-05T02:10:02.720Z,3.75
2023-05-05T02:13:05.549Z,3.42
2023-05-05T02:16:09.584Z,3.37
2023-05-05T02:19:14.254Z,3.58
2023-05-05T02:22:17.367Z,3.35
2023-05-05T02:25:20.111Z,3.12
2023-05-05T02:28:29.104Z,3.97
2023-05-05T02:31:34.369Z,3.78
2023-05-05T02:34:40.179Z,3.62
2023-05-05T02:37:59.774Z,3.87
2023-05-05T02:41:03.827Z,3.45
2023-05-05T02:44:08.374Z,3.95
2023-05-05T02:47:11.583Z,4.30
2023-05-05T02:50:15.586Z,3.43
2023-05-05T02:53:24.713Z,3.78
2023-05-05T02:56:51.001Z,3.53
2023-05-05T03:00:02.866Z,3.80
2023-05-05T03:03:24.627Z,3.40
2023-05-05T03:06:30.055Z,3.87
2023-05-05T03:09:39.760Z,5.20
2023-05-05T03:12:53.351Z,3.95
2023-05-05T03:15:58.543Z,4.25
2023-05-05T03:19:02.699Z,4.53
2023-05-05T03:22:05.415Z,2.95
2023-05-05T03:25:08.732Z,3.55
2023-05-05T03:28:11.569Z,4.62
2023-05-05T03:31:14.541Z,3.95
2023-05-05T03:34:17.144Z,3.72
2023-05-05T03:37:19.904Z,3.87
2023-05-05T03:40:29.665Z,4.10
2023-05-05T03:43:39.429Z,3.53
2023-05-05T03:46:42.433Z,3.28
2023-05-05T03:49:45.601Z,4.55
2023-05-05T03:52:48.194Z,4.35
2023-05-05T03:55:50.567Z,4.20
2023-05-05T03:58:53.004Z,3.85
2023-05-05T04:01:55.325Z,4.80
2023-05-05T04:04:57.886Z,4.22
2023-05-05T04:08:00.584Z,3.95
2023-05-05T04:11:03.670Z,4.95
2023-05-05T04:14:06.498Z,3.78
2023-05-05T04:17:09.536Z,5.03
2023-05-05T04:20:12.117Z,4.25
2023-05-05T04:23:15.175Z,4.53
2023-05-05T04:26:17.747Z,3.60
2023-05-05T04:29:20.496Z,4.63
2023-05-05T04:32:23.216Z,4.07
2023-05-05T04:38:29.273Z,4.32
2023-05-05T04:41:32.867Z,5.07
2023-05-05T04:44:35.072Z,4.87
2023-05-05T04:47:39.386Z,4.80
2023-05-05T04:50:41.874Z,4.55
2023-05-05T04:53:44.402Z,4.85
2023-05-05T04:56:47.760Z,5.12
2023-05-05T04:59:50.344Z,4.53
2023-05-05T05:02:53.209Z,4.97
2023-05-05T05:05:55.744Z,4.37
2023-05-05T05:08:57.936Z,5.00
2023-05-05T05:12:02.866Z,5.25
2023-05-05T05:15:05.670Z,5.20
2023-05-05T05:18:08.135Z,4.75
2023-05-05T05:21:10.689Z,4.70
2023-05-05T05:24:13.735Z,6.55
2023-05-05T05:30:23.639Z,5.07
2023-05-05T05:33:26.031Z,4.72
2023-05-05T05:36:29.300Z,4.78
2023-05-05T05:39:31.681Z,4.68
2023-05-05T05:42:34.839Z,3.60
2023-05-05T05:45:37.562Z,4.20
2023-05-05T05:48:40.902Z,5.22
2023-05-05T05:51:43.641Z,5.07
2023-05-05T05:54:47.339Z,4.87
2023-05-05T05:57:49.663Z,3.90
2023-05-05T06:00:52.743Z,3.75
2023-05-05T06:03:55.423Z,4.05
2023-05-05T06:06:58.091Z,4.00
2023-05-05T06:10:10.849Z,4.62
2023-05-05T06:13:22.386Z,4.72
2023-05-05T06:16:26.525Z,4.43
2023-05-05T06:19:31.055Z,4.57
2023-05-05T06:22:33.764Z,4.35
2023-05-05T06:25:36.164Z,4.22
2023-05-05T06:28:39.290Z,5.22
2023-05-05T06:31:47.703Z,3.75
2023-05-05T06:34:50.278Z,4.70
2023-05-05T06:37:52.452Z,4.30
2023-05-05T06:40:54.966Z,4.15
2023-05-05T06:43:57.619Z,3.90
2023-05-05T06:47:00.459Z,4.90
2023-05-05T06:50:03.803Z,3.70
2023-05-05T06:53:07.808Z,3.97
2023-05-05T06:56:11.527Z,4.90
2023-05-05T06:59:14.175Z,4.55
2023-05-05T07:02:16.504Z,3.37
2023-05-05T07:05:19.062Z,3.72
2023-05-05T07:08:21.399Z,3.90
2023-05-05T07:11:24.166Z,4.00
2023-05-05T07:14:27.065Z,3.58
2023-05-05T07:17:29.613Z,4.05
2023-05-05T07:20:32.388Z,4.07
2023-05-05T07:23:40.232Z,4.07
2023-05-05T07:26:43.481Z,3.40
2023-05-05T07:29:46.288Z,4.18
2023-05-05T07:32:49.885Z,5.07
2023-05-05T07:35:52.384Z,4.62
2023-05-05T07:38:54.852Z,4.85
2023-05-05T07:41:58.124Z,4.53
2023-05-05T07:45:00.723Z,3.87
2023-05-05T07:48:03.487Z,4.25
2023-05-05T07:51:05.834Z,4.07
2023-05-05T07:54:08.810Z,3.62
2023-05-05T07:57:11.899Z,4.80
2023-05-05T08:00:15.961Z,5.03
2023-05-05T08:03:21.810Z,4.43
2023-05-05T08:06:25.235Z,4.30
2023-05-05T08:09:27.788Z,4.65
2023-05-05T08:12:32.012Z,4.28
2023-05-05T08:15:34.538Z,4.78
2023-05-05T08:18:38.341Z,5.10
2023-05-05T08:21:40.875Z,4.95
2023-05-05T08:24:43.065Z,5.53
2023-05-05T08:27:45.894Z,5.10
2023-05-05T08:30:49.385Z,4.93
2023-05-05T08:33:51.827Z,5.20
2023-05-05T08:36:54.116Z,5.35
2023-05-05T08:40:00.387Z,4.57
2023-05-05T08:43:03.802Z,5.12
2023-05-05T08:46:10.639Z,5.50
2023-05-05T08:49:16.290Z,5.03
2023-05-05T08:52:23.831Z,6.10
2023-05-05T08:55:31.154Z,5.68
2023-05-05T08:58:36.870Z,5.47
2023-05-05T09:01:41.763Z,5.07
2023-05-05T09:04:44.458Z,5.70
2023-05-05T09:07:47.329Z,5.57
2023-05-05T09:10:51.323Z,5.87
2023-05-05T09:13:54.693Z,5.15
2023-05-05T09:16:57.132Z,5.35
2023-05-05T09:20:10.492Z,5.07
2023-05-05T09:23:23.232Z,5.87
2023-05-05T09:26:26.041Z,5.50
2023-05-05T09:29:29.410Z,6.03
2023-05-05T09:32:43.688Z,4.78
2023-05-05T09:35:56.197Z,6.57
2023-05-05T09:39:06.185Z,4.78
2023-05-05T09:42:18.486Z,5.78
2023-05-05T09:45:20.814Z,5.28
2023-05-05T09:48:28.370Z,4.93
2023-05-05T09:51:31.745Z,4.57
2023-05-05T09:54:35.285Z,4.93
2023-05-05T09:57:37.633Z,4.50
2023-05-05T10:00:40.160Z,4.72
2023-05-05T10:03:52.279Z,4.75
2023-05-05T10:06:56.427Z,4.28
2023-05-05T10:09:58.867Z,3.75
2023-05-05T10:13:01.727Z,4.05
2023-05-05T10:16:05.014Z,4.70
2023-05-05T10:19:07.398Z,4.68
2023-05-05T10:22:10.774Z,4.80
2023-05-05T10:25:15.424Z,4.30
2023-05-05T10:28:29.786Z,4.20
2023-05-05T10:32:16.310Z,4.60
2023-05-05T10:38:31.806Z,5.32
2023-05-05T10:41:35.094Z,4.47
2023-05-05T10:44:37.562Z,4.47
2023-05-05T10:50:51.280Z,5.35
2023-05-05T10:54:00.324Z,4.95
2023-05-05T10:57:05.044Z,4.43
2023-05-05T11:00:41.626Z,4.75
2023-05-05T11:03:44.161Z,3.87
2023-05-05T11:07:10.244Z,4.57
2023-05-05T11:10:20.964Z,3.75
2023-05-05T11:13:24.198Z,5.93
2023-05-05T11:16:43.653Z,4.60
2023-05-05T11:19:47.650Z,5.45
2023-05-05T11:23:02.594Z,4.70
2023-05-05T11:26:08.993Z,5.28
2023-05-05T11:29:11.675Z,5.25
2023-05-05T11:32:15.780Z,5.57
2023-05-05T11:35:18.277Z,5.22
2023-05-05T11:38:28.196Z,5.80
2023-05-05T11:41:30.742Z,5.20
2023-05-05T11:47:38.398Z,4.72
2023-05-05T11:50:41.910Z,5.43
2023-05-05T11:53:46.931Z,5.70
2023-05-05T11:56:51.181Z,4.62
2023-05-05T11:59:54.169Z,4.60
2023-05-05T12:02:59.177Z,4.50
2023-05-05T12:06:03.527Z,4.20
2023-05-05T12:09:16.854Z,3.53
2023-05-05T12:12:20.504Z,4.03
2023-05-05T12:15:31.290Z,3.40
2023-05-05T12:18:35.521Z,4.82
2023-05-05T12:21:38.448Z,4.03
2023-05-05T12:24:41.794Z,3.85
2023-05-05T12:27:53.005Z,4.28
2023-05-05T12:30:59.465Z,3.28
2023-05-05T12:34:03.190Z,4.07
2023-05-05T12:37:06.045Z,4.03
2023-05-05T12:40:47.492Z,3.97
2023-05-05T12:44:01.172Z,3.83
2023-05-05T12:47:04.061Z,3.90
2023-05-05T12:53:09.049Z,3.87
2023-05-05T12:56:34.247Z,3.97
2023-05-05T12:59:36.529Z,3.22
2023-05-05T13:02:41.725Z,4.03
2023-05-05T13:05:44.043Z,3.90
2023-05-05T13:08:46.684Z,3.87
2023-05-05T13:11:49.292Z,3.50
2023-05-05T13:14:51.883Z,3.78
2023-05-05T13:18:01.455Z,4.17
2023-05-05T13:21:04.363Z,4.25
2023-05-05T13:24:22.966Z,4.37
2023-05-05T13:27:28.392Z,4.05
2023-05-05T13:30:30.560Z,3.40
2023-05-05T13:33:34.563Z,3.87
2023-05-05T13:36:36.938Z,4.20
2023-05-05T13:39:39.416Z,4.10
2023-05-05T13:42:41.550Z,3.67
2023-05-05T13:45:43.964Z,3.10
2023-05-05T13:48:46.645Z,4.62
2023-05-05T13:51:49.235Z,3.60
2023-05-05T13:54:51.480Z,4.00
2023-05-05T13:57:54.011Z,4.78
2023-05-05T14:00:56.327Z,4.20
2023-05-05T14:03:58.899Z,4.53
2023-05-05T14:07:01.146Z,4.90
2023-05-05T14:10:04.251Z,4.15
2023-05-05T14:13:07.296Z,5.37
2023-05-05T14:16:09.881Z,5.12
2023-05-05T14:19:12.053Z,4.82
2023-05-05T14:22:14.562Z,4.40
2023-05-05T14:25:16.766Z,6.85
2023-05-05T14:28:19.277Z,4.47
2023-05-05T14:31:21.546Z,4.53
2023-05-05T14:34:24.056Z,5.40
2023-05-05T14:37:26.241Z,5.00
2023-05-05T14:40:30.294Z,4.97
2023-05-05T14:43:33.160Z,5.05
2023-05-05T14:46:35.787Z,4.45
2023-05-05T14:49:37.924Z,5.68
2023-05-05T14:52:40.602Z,5.50
2023-05-05T14:55:42.757Z,4.72
2023-05-05T14:58:46.172Z,4.57
2023-05-05T15:01:49.573Z,4.87
2023-05-05T15:04:53.034Z,4.20
2023-05-05T15:07:55.450Z,4.28
2023-05-05T15:10:57.904Z,4.40
2023-05-05T15:14:00.097Z,4.43
2023-05-05T15:17:02.792Z,4.28
2023-05-05T15:20:06.402Z,4.10
2023-05-05T15:23:08.994Z,5.03
2023-05-05T15:26:11.493Z,4.57
2023-05-05T15:29:14.133Z,3.97
2023-05-05T15:32:16.273Z,4.23
2023-05-05T15:35:19.046Z,4.17
2023-05-05T15:38:21.245Z,4.43
2023-05-05T15:41:26.987Z,4.68
2023-05-05T15:44:29.831Z,4.68
2023-05-05T15:47:32.340Z,5.28
2023-05-05T15:50:34.573Z,4.68
2023-05-05T15:53:37.086Z,4.12
2023-05-05T15:56:39.345Z,5.40
2023-05-05T15:59:41.860Z,4.12
2023-05-05T16:02:44.933Z,5.12
2023-05-05T16:05:47.806Z,4.72
2023-05-05T16:08:51.722Z,3.87
2023-05-05T16:11:54.583Z,4.18
2023-05-05T16:14:56.808Z,4.07
2023-05-05T16:17:59.392Z,3.93
2023-05-05T16:21:02.576Z,4.62
2023-05-05T16:24:05.302Z,4.22
2023-05-05T16:27:07.623Z,4.10
2023-05-05T16:30:12.773Z,5.37
2023-05-05T16:33:15.063Z,4.07
2023-05-05T16:36:18.046Z,4.93
2023-05-05T16:42:24.189Z,4.28
2023-05-05T16:45:26.391Z,4.30
2023-05-05T16:48:28.944Z,3.73
2023-05-05T16:51:31.493Z,4.43
2023-05-05T16:54:34.003Z,4.40
2023-05-05T16:57:36.234Z,3.90
2023-05-05T17:00:38.746Z,4.12
2023-05-05T17:03:41.218Z,4.72
2023-05-05T17:06:43.905Z,4.18
2023-05-05T17:09:46.092Z,3.97
2023-05-05T17:12:48.649Z,3.93
2023-05-05T17:15:51.302Z,4.03
2023-05-05T17:18:54.180Z,4.35
2023-05-05T17:21:56.812Z,3.73
2023-05-05T17:24:59.325Z,4.15
2023-05-05T17:28:01.684Z,4.50
2023-05-05T17:31:04.298Z,4.60
2023-05-05T17:34:06.552Z,4.80
2023-05-05T17:37:09.713Z,3.93
2023-05-05T17:40:12.290Z,4.70
2023-05-05T17:43:14.858Z,4.07
2023-05-05T17:46:17.201Z,3.75
2023-05-05T17:49:21.427Z,4.50
2023-05-05T17:52:24.861Z,4.30
2023-05-05T17:55:27.916Z,4.47
2023-05-05T17:58:30.224Z,4.10
2023-05-05T18:01:32.703Z,4.03
2023-05-05T18:04:38.591Z,4.83
2023-05-05T18:07:40.773Z,5.45
2023-05-05T18:10:43.408Z,4.47
2023-05-05T18:13:45.611Z,3.87
2023-05-05T18:16:50.776Z,4.17
2023-05-05T18:19:53.047Z,4.57
2023-05-05T18:22:55.527Z,7.70
2023-05-05T18:25:57.696Z,6.05
2023-05-05T18:29:00.185Z,5.18
2023-05-05T18:32:02.604Z,4.57
2023-05-05T18:35:05.836Z,5.57
2023-05-05T18:38:07.980Z,5.28
2023-05-05T18:41:11.099Z,5.75
2023-05-05T18:44:13.299Z,5.60
2023-05-05T18:47:16.235Z,5.80
2023-05-05T18:50:19.028Z,5.87
2023-05-05T18:53:21.747Z,6.60
2023-05-05T18:56:23.893Z,6.18
2023-05-05T18:59:26.389Z,6.35
2023-05-05T19:02:28.655Z,6.03
2023-05-05T19:05:31.173Z,6.97
2023-05-05T19:08:33.373Z,7.37
2023-05-05T19:11:35.967Z,7.22
2023-05-05T19:14:38.113Z,6.78
2023-05-05T19:17:40.596Z,6.37
2023-05-05T19:20:43.558Z,7.25
2023-05-05T19:23:46.138Z,6.55
2023-05-05T19:26:48.367Z,7.93
2023-05-05T19:29:52.516Z,6.35
2023-05-05T19:32:55.274Z,6.85
2023-05-05T19:35:57.732Z,6.13
2023-05-05T19:39:01.885Z,5.82
2023-05-05T19:42:04.632Z,6.18
2023-05-05T19:45:07.450Z,6.35
2023-05-05T19:48:10.052Z,6.10
2023-05-05T19:51:12.801Z,6.25
2023-05-05T19:54:16.046Z,6.05
2023-05-05T19:57:18.396Z,5.78
2023-05-05T20:00:21.042Z,5.25
2023-05-05T20:03:23.614Z,6.00
2023-05-05T20:06:26.919Z,6.28
2023-05-05T20:12:31.706Z,7.10
2023-05-05T20:15:34.678Z,5.93
2023-05-05T20:18:36.931Z,6.60
2023-05-05T20:21:40.129Z,6.28
2023-05-05T20:24:42.350Z,5.45
2023-05-05T20:27:45.782Z,5.87
2023-05-05T20:30:48.190Z,5.90
2023-05-05T20:33:50.716Z,6.30
2023-05-05T20:36:54.207Z,6.18
2023-05-05T20:39:58.134Z,7.25
2023-05-05T20:43:00.310Z,6.97
2023-05-05T20:46:02.888Z,6.28
2023-05-05T20:49:05.028Z,6.80
2023-05-05T20:52:07.543Z,6.87
2023-05-05T20:55:09.922Z,6.53
2023-05-05T20:58:12.739Z,8.60
2023-05-05T21:01:14.943Z,6.32
2023-05-05T21:04:17.460Z,7.47
2023-05-05T21:07:19.597Z,6.65
2023-05-05T21:10:22.163Z,7.28
2023-05-05T21:13:24.455Z,8.27
2023-05-05T21:16:27.026Z,7.05
2023-05-05T21:19:29.251Z,7.43
2023-05-05T21:22:31.744Z,7.47
2023-05-05T21:25:33.963Z,7.57
2023-05-05T21:28:37.524Z,7.65
2023-05-05T21:31:40.701Z,7.22
2023-05-05T21:34:43.214Z,7.32
2023-05-05T21:37:45.436Z,8.88
2023-05-05T21:40:48.009Z,6.90
2023-05-05T21:43:50.210Z,8.05
2023-05-05T21:46:53.146Z,7.30
2023-05-05T21:49:55.383Z,8.75
2023-05-05T21:52:57.868Z,8.13
2023-05-05T21:56:00.174Z,8.63
2023-05-05T21:59:04.162Z,8.25
2023-05-05T22:02:06.469Z,8.52
2023-05-05T22:05:09.275Z,8.30
2023-05-05T22:08:11.511Z,8.40
2023-05-05T22:11:14.251Z,8.15
2023-05-05T22:14:16.498Z,7.82
2023-05-05T22:17:19.044Z,8.77
2023-05-05T22:20:21.723Z,7.85
2023-05-05T22:23:24.262Z,8.25
2023-05-05T22:26:26.472Z,8.85
2023-05-05T22:29:29.042Z,8.15
2023-05-05T22:32:31.346Z,8.82
2023-05-05T22:35:34.087Z,7.47
2023-05-05T22:38:36.286Z,8.35
2023-05-05T22:41:38.769Z,7.85
2023-05-05T22:44:40.939Z,8.13
2023-05-05T22:47:44.116Z,8.15
2023-05-05T22:50:46.514Z,8.60
2023-05-05T22:53:49.152Z,8.00
2023-05-05T22:56:51.345Z,8.13
2023-05-05T22:59:53.793Z,8.82
2023-05-05T23:02:56.074Z,8.63
2023-05-05T23:05:58.695Z,7.32
2023-05-05T23:09:01.045Z,9.80
2023-05-05T23:12:03.672Z,8.90
2023-05-05T23:15:06.661Z,8.18
2023-05-05T23:18:09.422Z,7.70
2023-05-05T23:21:11.933Z,8.63
2023-05-05T23:24:14.450Z,8.00
2023-05-05T23:27:16.647Z,9.05
2023-05-05T23:30:19.230Z,6.68
2023-05-05T23:33:21.400Z,7.45
2023-05-05T23:36:23.861Z,7.07
2023-05-05T23:39:26.072Z,7.43
2023-05-05T23:42:28.547Z,7.20
2023-05-05T23:45:30.873Z,6.97
2023-05-05T23:48:33.318Z,7.10
2023-05-05T23:51:35.740Z,6.95
2023-05-05T23:54:38.249Z,7.50
2023-05-05T23:57:40.444Z,7.72
